»·PEaware :: N17WC KHQM-KGPI

N17WC :: KHQM-KGPI

FLIGHT INFORMATION

Flight Status: Arrived
Operator: Privately registered:
United States
More flights under this callsign
Pilot: Jim P. (2486)
Aircraft: BEECH AIRCRAFT SUPER KING AIR 350
(B350)
More flights by this aircraft type
Origin: KHQM Bowerman
United States
Destination: KGPI Glacier Park Intl
United States
More flights between these airports :: More routes between these airports
Route: + MLP GOGGS
File this flight plan on PilotEdge
Remarks:
Altitude:
(Current/Filed)
25,000ft
Speed:
(Current/Filed)
310kts
Departed: 18-Jun-20 12:22 PM
Arrived: 18-Jun-20 02:01 PM
Distance/Time
Traveled:
399nm/1:39
Distance/Time
To Go:
Arrived

Flight Plot

Page will automatically refresh every two minutes.

Flight plan parsing failed; only flown route is shown


Map Options




Map Legend


Flown Route
Filed Route
Departure Airport
Arrival Airport
Navaid (VOR, NDB)
Fix

Horizontal Profiles

Position Reports

Time Latitude Longitude Heading Altitude Ground
Speed
18-Jun-20 12:03 46.973669 -123.927316 122 18ft 0kts
18-Jun-20 12:04 46.973669 -123.927316 122 18ft 0kts
18-Jun-20 12:05 46.973669 -123.927316 122 18ft 0kts
18-Jun-20 12:06 46.973669 -123.927316 122 18ft 0kts
18-Jun-20 12:07 46.973669 -123.927316 122 18ft 0kts
18-Jun-20 12:08 46.973669 -123.927316 122 18ft 0kts
18-Jun-20 12:09 46.973669 -123.927316 122 18ft 0kts
18-Jun-20 12:10 46.973669 -123.927316 122 18ft 0kts
18-Jun-20 12:11 46.973669 -123.927316 122 18ft 0kts
18-Jun-20 12:12 46.973669 -123.927316 122 18ft 0kts
18-Jun-20 12:13 46.973669 -123.927316 122 18ft 0kts
18-Jun-20 12:14 46.973669 -123.927316 122 18ft 0kts
18-Jun-20 12:15 46.973669 -123.927316 122 18ft 0kts
18-Jun-20 12:16 46.973669 -123.927316 122 18ft 0kts
18-Jun-20 12:17 46.973669 -123.927316 122 18ft 0kts
18-Jun-20 12:18 46.973669 -123.927316 122 18ft 0kts
18-Jun-20 12:19 46.973512 -123.927217 168 18ft 3kts
18-Jun-20 12:20 46.972343 -123.927184 261 18ft 0kts
18-Jun-20 12:21 46.972124 -123.929889 260 18ft 61kts
18-Jun-20 12:22 46.962745 -123.975508 236 1765ft 128kts
18-Jun-20 12:23 46.966688 -124.022045 6 3524ft 169kts
18-Jun-20 12:24 46.993056 -123.967929 78 5667ft 181kts
18-Jun-20 12:25 47.008100 -123.896493 69 7714ft 186kts
18-Jun-20 12:26 47.024922 -123.822826 69 9681ft 193kts
18-Jun-20 12:27 47.041469 -123.748451 69 11801ft 191kts
18-Jun-20 12:28 47.060148 -123.674650 61 13737ft 194kts
18-Jun-20 12:29 47.083643 -123.602811 59 15652ft 193kts
18-Jun-20 12:30 47.106965 -123.532860 57 17584ft 190kts
18-Jun-20 12:31 47.130403 -123.462533 56 19300ft 193kts
18-Jun-20 12:32 47.153200 -123.390879 60 21013ft 192kts
18-Jun-20 12:33 47.172574 -123.317676 58 22603ft 192kts
18-Jun-20 12:34 47.192037 -123.244446 57 24096ft 191kts
18-Jun-20 12:35 47.211564 -123.170885 57 25293ft 203kts
18-Jun-20 12:36 47.234766 -123.083154 60 25384ft 255kts
18-Jun-20 12:37 47.262943 -122.980972 64 25380ft 284kts
18-Jun-20 12:38 47.276319 -122.861075 76 25384ft 304kts
18-Jun-20 12:39 47.283934 -122.735661 77 25396ft 310kts
18-Jun-20 12:40 47.290948 -122.608836 78 25399ft 312kts
18-Jun-20 12:41 47.297820 -122.481201 78 25398ft 313kts
18-Jun-20 12:42 47.304565 -122.353179 78 25390ft 313kts
18-Jun-20 12:43 47.311187 -122.224732 78 25381ft 314kts
18-Jun-20 12:44 47.317648 -122.096622 78 25370ft 314kts
18-Jun-20 12:45 47.323980 -121.968138 79 25367ft 314kts
18-Jun-20 12:46 47.330180 -121.839402 79 25362ft 313kts
18-Jun-20 12:47 47.336200 -121.711384 79 25356ft 313kts
18-Jun-20 12:48 47.342098 -121.582899 79 25351ft 313kts
18-Jun-20 12:49 47.347832 -121.454833 79 25349ft 313kts
18-Jun-20 12:50 47.353438 -121.326370 80 25349ft 313kts
18-Jun-20 12:51 47.358900 -121.197888 80 25344ft 313kts
18-Jun-20 12:52 47.364214 -121.069481 80 25330ft 314kts
18-Jun-20 12:53 47.369405 -120.940529 80 25307ft 314kts
18-Jun-20 12:54 47.374433 -120.812011 80 25281ft 314kts
18-Jun-20 12:55 47.379327 -120.683181 81 25257ft 314kts
18-Jun-20 12:56 47.384090 -120.553961 81 25237ft 314kts
18-Jun-20 12:57 47.388682 -120.425439 81 25209ft 314kts
18-Jun-20 12:59 47.393150 -120.296304 81 25202ft 314kts
18-Jun-20 13:00 47.397452 -120.167740 81 25200ft 313kts
18-Jun-20 13:01 47.401617 -120.038989 82 25199ft 313kts
18-Jun-20 13:02 47.405622 -119.910702 82 25195ft 313kts
18-Jun-20 13:03 47.409492 -119.782081 83 25189ft 314kts
18-Jun-20 13:04 47.413221 -119.653355 83 25184ft 314kts
18-Jun-20 13:05 47.416811 -119.524383 83 25181ft 314kts
18-Jun-20 13:06 47.420254 -119.395465 83 25182ft 314kts
18-Jun-20 13:07 47.423555 -119.266494 84 25190ft 314kts
18-Jun-20 13:08 47.426719 -119.137012 84 25192ft 315kts
18-Jun-20 13:09 47.429730 -119.007908 84 25193ft 315kts
18-Jun-20 13:10 47.432604 -118.878348 84 25194ft 315kts
18-Jun-20 13:11 47.435332 -118.748822 85 25196ft 316kts
18-Jun-20 13:12 47.437920 -118.618932 85 25197ft 316kts
18-Jun-20 13:13 47.440356 -118.489232 85 25199ft 316kts
18-Jun-20 13:14 47.442647 -118.359484 86 25200ft 316kts
18-Jun-20 13:14 47.444451 -118.250906 86 25202ft 316kts
18-Jun-20 13:16 47.446802 -118.099655 86 25203ft 316kts
18-Jun-20 13:16 47.448351 -117.991200 86 25203ft 316kts
18-Jun-20 13:17 47.450080 -117.861112 86 25204ft 316kts
18-Jun-20 13:19 47.451917 -117.709389 86 25202ft 316kts
18-Jun-20 13:19 47.453097 -117.601177 86 25201ft 316kts
18-Jun-20 13:20 47.454387 -117.470852 87 25202ft 316kts
18-Jun-20 13:21 47.455501 -117.343892 86 25202ft 317kts
18-Jun-20 13:22 47.456505 -117.213839 87 25204ft 317kts
18-Jun-20 13:23 47.457346 -117.083803 87 25204ft 317kts
18-Jun-20 13:24 47.458058 -116.953389 87 25205ft 317kts
18-Jun-20 13:25 47.458603 -116.823128 87 25206ft 317kts
18-Jun-20 13:26 47.459010 -116.692805 87 25204ft 317kts
18-Jun-20 13:27 47.459268 -116.562623 87 25205ft 317kts
18-Jun-20 13:28 47.459378 -116.431871 87 25208ft 318kts
18-Jun-20 13:29 47.459339 -116.301113 87 25210ft 318kts
18-Jun-20 13:30 47.459150 -116.170153 87 25214ft 318kts
18-Jun-20 13:31 47.458821 -116.050061 86 24932ft 255kts
18-Jun-20 13:32 47.458491 -115.948803 85 23179ft 240kts
18-Jun-20 13:33 47.458080 -115.855155 85 21879ft 215kts
18-Jun-20 13:34 47.457638 -115.760984 86 20723ft 263kts
18-Jun-20 13:35 47.463510 -115.644568 66 19564ft 297kts
18-Jun-20 13:36 47.510613 -115.543101 49 18380ft 302kts
18-Jun-20 13:37 47.561388 -115.445493 49 17182ft 297kts
18-Jun-20 13:38 47.611515 -115.348874 49 15983ft 294kts
18-Jun-20 13:39 47.660850 -115.253395 49 14787ft 290kts
18-Jun-20 13:40 47.709702 -115.158550 50 13585ft 286kts
18-Jun-20 13:41 47.757472 -115.065084 49 12405ft 274kts
18-Jun-20 13:42 47.802273 -114.979597 51 11252ft 257kts
18-Jun-20 13:43 47.844977 -114.894390 51 10106ft 254kts
18-Jun-20 13:44 47.887134 -114.811304 51 9920ft 251kts
18-Jun-20 13:45 47.929273 -114.728149 51 9912ft 251kts
18-Jun-20 13:46 47.970807 -114.644246 52 9910ft 250kts
18-Jun-20 13:47 48.012831 -114.561444 50 9905ft 250kts
18-Jun-20 13:48 48.073029 -114.518607 7 9902ft 244kts
18-Jun-20 13:49 48.141669 -114.503254 8 9367ft 262kts
18-Jun-20 13:50 48.209134 -114.486805 8 7599ft 227kts
18-Jun-20 13:51 48.264550 -114.473132 8 7492ft 195kts
18-Jun-20 13:52 48.317142 -114.453369 21 7406ft 200kts
18-Jun-20 13:53 48.369987 -114.421053 20 6920ft 205kts
18-Jun-20 13:54 48.418775 -114.380994 43 6599ft 203kts
18-Jun-20 13:55 48.442688 -114.302904 84 5985ft 209kts
18-Jun-20 13:56 48.428344 -114.221486 121 5598ft 209kts
18-Jun-20 13:57 48.380034 -114.184102 192 4496ft 220kts
18-Jun-20 13:58 48.342837 -114.220992 216 3222ft 119kts
18-Jun-20 13:59 48.316140 -114.249615 214 2978ft 105kts
18-Jun-20 14:00 48.306137 -114.258314 105 2973ft 0kts
18-Jun-20 14:01 48.306130 -114.258279 106 2973ft 0kts
18-Jun-20 14:02 48.308032 -114.255979 35 2973ft 11kts
18-Jun-20 14:03 48.310080 -114.252442 71 2973ft 10kts
18-Jun-20 14:04 48.309802 -114.250510 136 2973ft 0kts
18-Jun-20 14:05 48.309802 -114.250510 136 2973ft 0kts
18-Jun-20 14:06 48.309802 -114.250510 136 2973ft 0kts

Navigation Log

Ident Type
Flight plan parsing failed, navigation log unavailable